sensor_id;sensor_type;location;lat;lon;timestamp;P1;durP1;ratioP1;P2;durP2;ratioP2
75716;SDS011;64333;50.138;14.332;2023-04-01T00:01:42;2.53;;;0.57;;
75716;SDS011;64333;50.138;14.332;2023-04-01T00:04:07;0.98;;;0.85;;
75716;SDS011;64333;50.138;14.332;2023-04-01T00:06:32;2.10;;;0.80;;
75716;SDS011;64333;50.138;14.332;2023-04-01T00:08:58;2.23;;;2.03;;
75716;SDS011;64333;50.138;14.332;2023-04-01T00:11:23;2.33;;;0.50;;
75716;SDS011;64333;50.138;14.332;2023-04-01T00:13:48;2.95;;;0.90;;
75716;SDS011;64333;50.138;14.332;2023-04-01T00:16:14;0.50;;;0.40;;
75716;SDS011;64333;50.138;14.332;2023-04-01T00:18:39;0.88;;;0.60;;
75716;SDS011;64333;50.138;14.332;2023-04-01T00:21:05;1.38;;;0.70;;
75716;SDS011;64333;50.138;14.332;2023-04-01T00:23:30;2.60;;;0.70;;
75716;SDS011;64333;50.138;14.332;2023-04-01T00:25:56;2.88;;;0.95;;
75716;SDS011;64333;50.138;14.332;2023-04-01T00:28:21;1.85;;;0.80;;
75716;SDS011;64333;50.138;14.332;2023-04-01T00:30:46;2.10;;;0.90;;
75716;SDS011;64333;50.138;14.332;2023-04-01T00:33:12;2.10;;;0.80;;
75716;SDS011;64333;50.138;14.332;2023-04-01T00:35:37;0.80;;;0.57;;
75716;SDS011;64333;50.138;14.332;2023-04-01T00:38:03;1.73;;;0.60;;
75716;SDS011;64333;50.138;14.332;2023-04-01T00:40:30;1.20;;;0.82;;
75716;SDS011;64333;50.138;14.332;2023-04-01T00:42:56;0.60;;;0.60;;
75716;SDS011;64333;50.138;14.332;2023-04-01T00:45:28;1.73;;;0.88;;
75716;SDS011;64333;50.138;14.332;2023-04-01T00:47:54;2.22;;;0.50;;
75716;SDS011;64333;50.138;14.332;2023-04-01T00:50:21;1.25;;;0.98;;
75716;SDS011;64333;50.138;14.332;2023-04-01T00:52:47;3.33;;;0.70;;
75716;SDS011;64333;50.138;14.332;2023-04-01T00:55:12;2.13;;;0.75;;
75716;SDS011;64333;50.138;14.332;2023-04-01T00:57:38;1.33;;;0.85;;
75716;SDS011;64333;50.138;14.332;2023-04-01T01:00:06;1.42;;;0.60;;
75716;SDS011;64333;50.138;14.332;2023-04-01T01:02:34;3.70;;;0.85;;
75716;SDS011;64333;50.138;14.332;2023-04-01T01:04:59;1.35;;;0.60;;
75716;SDS011;64333;50.138;14.332;2023-04-01T01:25:13;1.38;;;0.70;;
75716;SDS011;64333;50.138;14.332;2023-04-01T01:37:56;0.82;;;0.60;;
75716;SDS011;64333;50.138;14.332;2023-04-01T01:40:22;1.95;;;0.65;;
75716;SDS011;64333;50.138;14.332;2023-04-01T01:42:50;3.65;;;0.60;;
75716;SDS011;64333;50.138;14.332;2023-04-01T01:45:18;2.65;;;0.90;;
75716;SDS011;64333;50.138;14.332;2023-04-01T01:47:43;2.05;;;0.60;;
75716;SDS011;64333;50.138;14.332;2023-04-01T01:50:10;0.93;;;0.50;;
75716;SDS011;64333;50.138;14.332;2023-04-01T01:52:36;2.22;;;0.80;;
75716;SDS011;64333;50.138;14.332;2023-04-01T01:55:02;1.53;;;0.30;;
75716;SDS011;64333;50.138;14.332;2023-04-01T01:57:34;2.50;;;0.60;;
75716;SDS011;64333;50.138;14.332;2023-04-01T02:00:04;0.60;;;0.43;;
75716;SDS011;64333;50.138;14.332;2023-04-01T02:02:30;1.95;;;0.50;;
75716;SDS011;64333;50.138;14.332;2023-04-01T02:04:56;1.25;;;0.52;;
75716;SDS011;64333;50.138;14.332;2023-04-01T02:07:23;1.40;;;0.50;;
75716;SDS011;64333;50.138;14.332;2023-04-01T02:09:50;2.55;;;0.60;;
75716;SDS011;64333;50.138;14.332;2023-04-01T02:12:16;1.52;;;0.50;;
75716;SDS011;64333;50.138;14.332;2023-04-01T02:14:54;1.55;;;0.50;;
75716;SDS011;64333;50.138;14.332;2023-04-01T02:17:22;2.47;;;0.70;;
75716;SDS011;64333;50.138;14.332;2023-04-01T02:19:49;1.42;;;0.50;;
75716;SDS011;64333;50.138;14.332;2023-04-01T02:22:16;2.03;;;0.82;;
75716;SDS011;64333;50.138;14.332;2023-04-01T02:24:42;3.90;;;0.98;;
75716;SDS011;64333;50.138;14.332;2023-04-01T02:27:11;2.50;;;0.80;;
75716;SDS011;64333;50.138;14.332;2023-04-01T02:29:37;0.98;;;0.63;;
75716;SDS011;64333;50.138;14.332;2023-04-01T02:32:02;3.07;;;0.60;;
75716;SDS011;64333;50.138;14.332;2023-04-01T02:34:28;1.13;;;0.60;;
75716;SDS011;64333;50.138;14.332;2023-04-01T02:36:54;3.92;;;0.65;;
75716;SDS011;64333;50.138;14.332;2023-04-01T02:39:20;2.58;;;0.70;;
75716;SDS011;64333;50.138;14.332;2023-04-01T02:41:46;1.40;;;0.50;;
75716;SDS011;64333;50.138;14.332;2023-04-01T02:44:12;1.40;;;0.50;;
75716;SDS011;64333;50.138;14.332;2023-04-01T02:46:37;4.25;;;0.90;;
75716;SDS011;64333;50.138;14.332;2023-04-01T02:49:02;4.80;;;0.88;;
75716;SDS011;64333;50.138;14.332;2023-04-01T02:51:28;2.28;;;0.60;;
75716;SDS011;64333;50.138;14.332;2023-04-01T02:53:53;1.33;;;0.60;;
75716;SDS011;64333;50.138;14.332;2023-04-01T02:56:18;1.87;;;1.07;;
75716;SDS011;64333;50.138;14.332;2023-04-01T02:58:44;2.83;;;0.47;;
75716;SDS011;64333;50.138;14.332;2023-04-01T03:01:10;0.90;;;0.47;;
75716;SDS011;64333;50.138;14.332;2023-04-01T03:03:35;2.73;;;0.67;;
75716;SDS011;64333;50.138;14.332;2023-04-01T03:06:19;2.27;;;0.80;;
75716;SDS011;64333;50.138;14.332;2023-04-01T03:08:44;2.55;;;1.02;;
75716;SDS011;64333;50.138;14.332;2023-04-01T03:11:10;0.90;;;0.60;;
75716;SDS011;64333;50.138;14.332;2023-04-01T03:13:35;1.52;;;0.82;;
75716;SDS011;64333;50.138;14.332;2023-04-01T03:16:00;3.07;;;0.97;;
75716;SDS011;64333;50.138;14.332;2023-04-01T03:18:26;1.65;;;0.80;;
75716;SDS011;64333;50.138;14.332;2023-04-01T03:20:51;2.43;;;0.50;;
75716;SDS011;64333;50.138;14.332;2023-04-01T03:23:16;0.80;;;0.50;;
75716;SDS011;64333;50.138;14.332;2023-04-01T03:25:44;2.50;;;0.80;;
75716;SDS011;64333;50.138;14.332;2023-04-01T03:28:09;2.27;;;0.93;;
75716;SDS011;64333;50.138;14.332;2023-04-01T03:30:35;2.85;;;0.75;;
75716;SDS011;64333;50.138;14.332;2023-04-01T03:33:00;1.23;;;0.40;;
75716;SDS011;64333;50.138;14.332;2023-04-01T03:35:26;1.90;;;0.90;;
75716;SDS011;64333;50.138;14.332;2023-04-01T03:37:52;3.03;;;0.98;;
75716;SDS011;64333;50.138;14.332;2023-04-01T03:40:17;1.65;;;0.50;;
75716;SDS011;64333;50.138;14.332;2023-04-01T03:42:43;1.52;;;0.50;;
75716;SDS011;64333;50.138;14.332;2023-04-01T03:45:08;2.97;;;0.50;;
75716;SDS011;64333;50.138;14.332;2023-04-01T03:47:34;0.70;;;0.40;;
75716;SDS011;64333;50.138;14.332;2023-04-01T03:49:59;1.48;;;0.60;;
75716;SDS011;64333;50.138;14.332;2023-04-01T03:52:25;1.75;;;0.57;;
75716;SDS011;64333;50.138;14.332;2023-04-01T03:54:50;1.45;;;0.57;;
75716;SDS011;64333;50.138;14.332;2023-04-01T03:57:15;3.53;;;1.33;;
75716;SDS011;64333;50.138;14.332;2023-04-01T03:59:41;1.55;;;0.57;;
75716;SDS011;64333;50.138;14.332;2023-04-01T04:02:06;1.93;;;0.70;;
75716;SDS011;64333;50.138;14.332;2023-04-01T04:04:31;3.27;;;0.80;;
75716;SDS011;64333;50.138;14.332;2023-04-01T04:06:57;2.40;;;0.70;;
75716;SDS011;64333;50.138;14.332;2023-04-01T04:09:22;2.70;;;0.70;;
75716;SDS011;64333;50.138;14.332;2023-04-01T04:11:47;2.27;;;0.60;;
75716;SDS011;64333;50.138;14.332;2023-04-01T04:14:13;4.28;;;1.05;;
75716;SDS011;64333;50.138;14.332;2023-04-01T04:16:38;3.40;;;0.93;;
75716;SDS011;64333;50.138;14.332;2023-04-01T04:19:03;1.27;;;0.73;;
75716;SDS011;64333;50.138;14.332;2023-04-01T04:21:29;1.03;;;0.47;;
75716;SDS011;64333;50.138;14.332;2023-04-01T04:23:54;3.05;;;0.40;;
75716;SDS011;64333;50.138;14.332;2023-04-01T04:26:19;3.07;;;0.90;;
75716;SDS011;64333;50.138;14.332;2023-04-01T04:28:45;2.08;;;0.70;;
75716;SDS011;64333;50.138;14.332;2023-04-01T04:31:10;3.63;;;0.87;;
75716;SDS011;64333;50.138;14.332;2023-04-01T04:33:35;1.88;;;0.73;;
75716;SDS011;64333;50.138;14.332;2023-04-01T04:36:01;2.55;;;0.60;;
75716;SDS011;64333;50.138;14.332;2023-04-01T04:38:27;1.23;;;0.68;;
75716;SDS011;64333;50.138;14.332;2023-04-01T04:40:52;0.85;;;0.73;;
75716;SDS011;64333;50.138;14.332;2023-04-01T04:43:18;2.53;;;0.93;;
75716;SDS011;64333;50.138;14.332;2023-04-01T04:45:43;1.75;;;0.60;;
75716;SDS011;64333;50.138;14.332;2023-04-01T04:48:09;1.23;;;0.60;;
75716;SDS011;64333;50.138;14.332;2023-04-01T04:50:34;2.83;;;0.95;;
75716;SDS011;64333;50.138;14.332;2023-04-01T04:53:00;2.45;;;0.75;;
75716;SDS011;64333;50.138;14.332;2023-04-01T04:55:25;0.87;;;0.70;;
75716;SDS011;64333;50.138;14.332;2023-04-01T04:57:50;2.47;;;1.30;;
75716;SDS011;64333;50.138;14.332;2023-04-01T05:00:16;0.93;;;0.70;;
75716;SDS011;64333;50.138;14.332;2023-04-01T05:02:41;3.22;;;0.90;;
75716;SDS011;64333;50.138;14.332;2023-04-01T05:05:06;2.08;;;1.00;;
75716;SDS011;64333;50.138;14.332;2023-04-01T05:07:32;1.73;;;0.75;;
75716;SDS011;64333;50.138;14.332;2023-04-01T05:09:58;3.15;;;1.02;;
75716;SDS011;64333;50.138;14.332;2023-04-01T05:12:23;1.77;;;0.77;;
75716;SDS011;64333;50.138;14.332;2023-04-01T05:14:48;2.27;;;0.70;;
75716;SDS011;64333;50.138;14.332;2023-04-01T05:17:14;1.70;;;0.83;;
75716;SDS011;64333;50.138;14.332;2023-04-01T05:19:39;2.03;;;0.90;;
75716;SDS011;64333;50.138;14.332;2023-04-01T05:22:05;1.23;;;0.95;;
75716;SDS011;64333;50.138;14.332;2023-04-01T05:24:30;2.78;;;0.98;;
75716;SDS011;64333;50.138;14.332;2023-04-01T05:26:56;2.58;;;1.08;;
75716;SDS011;64333;50.138;14.332;2023-04-01T05:29:22;1.25;;;0.60;;
75716;SDS011;64333;50.138;14.332;2023-04-01T05:31:47;4.90;;;0.82;;
75716;SDS011;64333;50.138;14.332;2023-04-01T05:34:13;3.47;;;0.80;;
75716;SDS011;64333;50.138;14.332;2023-04-01T05:36:38;2.63;;;0.90;;
75716;SDS011;64333;50.138;14.332;2023-04-01T05:39:03;1.65;;;0.68;;
75716;SDS011;64333;50.138;14.332;2023-04-01T05:41:28;2.20;;;1.00;;
75716;SDS011;64333;50.138;14.332;2023-04-01T05:43:54;2.35;;;0.90;;
75716;SDS011;64333;50.138;14.332;2023-04-01T05:46:19;1.65;;;0.77;;
75716;SDS011;64333;50.138;14.332;2023-04-01T05:48:45;3.58;;;0.80;;
75716;SDS011;64333;50.138;14.332;2023-04-01T05:51:14;2.20;;;0.87;;
75716;SDS011;64333;50.138;14.332;2023-04-01T05:53:39;3.20;;;0.88;;
75716;SDS011;64333;50.138;14.332;2023-04-01T05:56:05;2.92;;;0.77;;
75716;SDS011;64333;50.138;14.332;2023-04-01T05:58:30;2.45;;;0.60;;
75716;SDS011;64333;50.138;14.332;2023-04-01T06:01:06;0.80;;;0.47;;
75716;SDS011;64333;50.138;14.332;2023-04-01T06:03:31;2.60;;;0.88;;
75716;SDS011;64333;50.138;14.332;2023-04-01T06:05:56;2.07;;;0.83;;
75716;SDS011;64333;50.138;14.332;2023-04-01T06:08:22;1.58;;;0.65;;
75716;SDS011;64333;50.138;14.332;2023-04-01T06:13:43;1.85;;;0.73;;
75716;SDS011;64333;50.138;14.332;2023-04-01T06:26:35;2.35;;;0.70;;
75716;SDS011;64333;50.138;14.332;2023-04-01T06:29:08;1.83;;;0.90;;
75716;SDS011;64333;50.138;14.332;2023-04-01T06:54:52;2.20;;;1.33;;
75716;SDS011;64333;50.138;14.332;2023-04-01T06:57:27;2.25;;;0.82;;
75716;SDS011;64333;50.138;14.332;2023-04-01T06:59:55;2.70;;;1.00;;
75716;SDS011;64333;50.138;14.332;2023-04-01T07:02:24;2.20;;;0.63;;
75716;SDS011;64333;50.138;14.332;2023-04-01T07:04:51;1.00;;;0.60;;
75716;SDS011;64333;50.138;14.332;2023-04-01T07:09:58;3.03;;;0.65;;
75716;SDS011;64333;50.138;14.332;2023-04-01T07:12:33;2.80;;;0.63;;
75716;SDS011;64333;50.138;14.332;2023-04-01T07:15:04;2.35;;;1.15;;
75716;SDS011;64333;50.138;14.332;2023-04-01T07:17:35;2.33;;;0.68;;
75716;SDS011;64333;50.138;14.332;2023-04-01T07:22:35;0.98;;;0.70;;
75716;SDS011;64333;50.138;14.332;2023-04-01T07:27:41;1.15;;;0.63;;
75716;SDS011;64333;50.138;14.332;2023-04-01T07:30:12;1.27;;;0.60;;
75716;SDS011;64333;50.138;14.332;2023-04-01T07:33:12;1.13;;;0.50;;
75716;SDS011;64333;50.138;14.332;2023-04-01T07:35:38;2.58;;;0.70;;
75716;SDS011;64333;50.138;14.332;2023-04-01T07:40:55;0.68;;;0.55;;
75716;SDS011;64333;50.138;14.332;2023-04-01T07:48:25;2.45;;;0.65;;
75716;SDS011;64333;50.138;14.332;2023-04-01T07:50:56;1.67;;;0.55;;
75716;SDS011;64333;50.138;14.332;2023-04-01T07:58:25;1.27;;;0.80;;
75716;SDS011;64333;50.138;14.332;2023-04-01T08:03:41;1.95;;;0.70;;
75716;SDS011;64333;50.138;14.332;2023-04-01T08:06:13;0.88;;;0.60;;
75716;SDS011;64333;50.138;14.332;2023-04-01T08:11:24;1.17;;;0.55;;
75716;SDS011;64333;50.138;14.332;2023-04-01T08:14:04;2.00;;;0.60;;
75716;SDS011;64333;50.138;14.332;2023-04-01T08:21:33;1.63;;;0.70;;
75716;SDS011;64333;50.138;14.332;2023-04-01T08:24:04;1.55;;;0.50;;
75716;SDS011;64333;50.138;14.332;2023-04-01T08:26:35;1.67;;;0.70;;
75716;SDS011;64333;50.138;14.332;2023-04-01T08:29:04;1.85;;;0.70;;
75716;SDS011;64333;50.138;14.332;2023-04-01T08:34:51;0.80;;;0.50;;
75716;SDS011;64333;50.138;14.332;2023-04-01T08:39:34;2.67;;;0.60;;
75716;SDS011;64333;50.138;14.332;2023-04-01T09:07:21;2.38;;;0.63;;
75716;SDS011;64333;50.138;14.332;2023-04-01T09:12:28;1.33;;;0.50;;
75716;SDS011;64333;50.138;14.332;2023-04-01T09:15:00;0.55;;;0.45;;
75716;SDS011;64333;50.138;14.332;2023-04-01T09:27:34;2.63;;;0.68;;
75716;SDS011;64333;50.138;14.332;2023-04-01T09:35:23;0.93;;;0.52;;
75716;SDS011;64333;50.138;14.332;2023-04-01T09:37:53;0.80;;;0.63;;
75716;SDS011;64333;50.138;14.332;2023-04-01T09:43:18;0.60;;;0.50;;
75716;SDS011;64333;50.138;14.332;2023-04-01T09:45:48;1.33;;;0.50;;
75716;SDS011;64333;50.138;14.332;2023-04-01T09:48:29;2.20;;;0.60;;
75716;SDS011;64333;50.138;14.332;2023-04-01T09:51:12;1.40;;;0.50;;
75716;SDS011;64333;50.138;14.332;2023-04-01T10:01:24;0.87;;;0.40;;
75716;SDS011;64333;50.138;14.332;2023-04-01T11:00:53;0.90;;;0.40;;
75716;SDS011;64333;50.138;14.332;2023-04-01T11:03:38;1.15;;;0.40;;
75716;SDS011;64333;50.138;14.332;2023-04-01T11:09:06;0.98;;;0.50;;
75716;SDS011;64333;50.138;14.332;2023-04-01T11:11:47;1.33;;;0.60;;
75716;SDS011;64333;50.138;14.332;2023-04-01T11:35:36;0.93;;;0.52;;
75716;SDS011;64333;50.138;14.332;2023-04-01T11:48:11;0.98;;;0.60;;
75716;SDS011;64333;50.138;14.332;2023-04-01T11:50:58;0.93;;;0.40;;
75716;SDS011;64333;50.138;14.332;2023-04-01T11:56:07;0.43;;;0.40;;
75716;SDS011;64333;50.138;14.332;2023-04-01T11:58:36;0.38;;;0.38;;
75716;SDS011;64333;50.138;14.332;2023-04-01T12:01:13;1.35;;;0.40;;
75716;SDS011;64333;50.138;14.332;2023-04-01T12:09:21;0.85;;;0.60;;
75716;SDS011;64333;50.138;14.332;2023-04-01T12:19:36;0.53;;;0.47;;
75716;SDS011;64333;50.138;14.332;2023-04-01T12:35:13;1.13;;;0.60;;
75716;SDS011;64333;50.138;14.332;2023-04-01T12:40:26;1.27;;;0.40;;
75716;SDS011;64333;50.138;14.332;2023-04-01T12:48:16;1.87;;;0.63;;
75716;SDS011;64333;50.138;14.332;2023-04-01T12:55:42;0.93;;;0.43;;
75716;SDS011;64333;50.138;14.332;2023-04-01T13:03:32;0.57;;;0.40;;
75716;SDS011;64333;50.138;14.332;2023-04-01T13:24:06;1.08;;;0.50;;
75716;SDS011;64333;50.138;14.332;2023-04-01T13:43:52;2.40;;;0.88;;
75716;SDS011;64333;50.138;14.332;2023-04-01T13:54:03;1.60;;;0.73;;
75716;SDS011;64333;50.138;14.332;2023-04-01T14:04:28;2.28;;;0.82;;
75716;SDS011;64333;50.138;14.332;2023-04-01T14:12:27;0.80;;;0.52;;
75716;SDS011;64333;50.138;14.332;2023-04-01T14:42:02;1.30;;;0.80;;
75716;SDS011;64333;50.138;14.332;2023-04-01T14:44:38;2.45;;;0.88;;
75716;SDS011;64333;50.138;14.332;2023-04-01T14:49:52;1.20;;;0.80;;
75716;SDS011;64333;50.138;14.332;2023-04-01T14:54:46;1.70;;;0.60;;
75716;SDS011;64333;50.138;14.332;2023-04-01T14:57:13;2.10;;;1.00;;
75716;SDS011;64333;50.138;14.332;2023-04-01T14:59:49;1.20;;;0.57;;
75716;SDS011;64333;50.138;14.332;2023-04-01T15:02:33;1.75;;;0.93;;
75716;SDS011;64333;50.138;14.332;2023-04-01T15:15:36;3.40;;;3.10;;
75716;SDS011;64333;50.138;14.332;2023-04-01T15:20:43;3.47;;;2.80;;
75716;SDS011;64333;50.138;14.332;2023-04-01T15:23:21;2.45;;;1.40;;
75716;SDS011;64333;50.138;14.332;2023-04-01T15:44:32;1.00;;;0.57;;
75716;SDS011;64333;50.138;14.332;2023-04-01T15:47:01;1.13;;;1.00;;
75716;SDS011;64333;50.138;14.332;2023-04-01T15:49:37;0.80;;;0.70;;
75716;SDS011;64333;50.138;14.332;2023-04-01T15:52:14;1.23;;;0.68;;
75716;SDS011;64333;50.138;14.332;2023-04-01T15:57:23;1.10;;;0.73;;
75716;SDS011;64333;50.138;14.332;2023-04-01T16:00:09;2.80;;;1.30;;
75716;SDS011;64333;50.138;14.332;2023-04-01T16:02:47;1.83;;;1.00;;
75716;SDS011;64333;50.138;14.332;2023-04-01T16:05:27;0.88;;;0.80;;
75716;SDS011;64333;50.138;14.332;2023-04-01T16:15:51;1.50;;;0.85;;
75716;SDS011;64333;50.138;14.332;2023-04-01T16:21:12;1.27;;;0.85;;
75716;SDS011;64333;50.138;14.332;2023-04-01T16:23:46;0.82;;;0.80;;
75716;SDS011;64333;50.138;14.332;2023-04-01T16:28:42;2.78;;;2.10;;
75716;SDS011;64333;50.138;14.332;2023-04-01T16:36:28;0.90;;;0.68;;
75716;SDS011;64333;50.138;14.332;2023-04-01T16:41:36;0.70;;;0.60;;
75716;SDS011;64333;50.138;14.332;2023-04-01T16:44:09;0.88;;;0.75;;
75716;SDS011;64333;50.138;14.332;2023-04-01T16:56:56;2.15;;;0.77;;
75716;SDS011;64333;50.138;14.332;2023-04-01T16:59:27;1.77;;;0.75;;
75716;SDS011;64333;50.138;14.332;2023-04-01T17:02:02;2.25;;;0.60;;
75716;SDS011;64333;50.138;14.332;2023-04-01T17:12:21;0.90;;;0.77;;
75716;SDS011;64333;50.138;14.332;2023-04-01T17:14:54;1.05;;;0.95;;
75716;SDS011;64333;50.138;14.332;2023-04-01T17:22:31;0.63;;;0.60;;
75716;SDS011;64333;50.138;14.332;2023-04-01T17:27:51;0.80;;;0.50;;
75716;SDS011;64333;50.138;14.332;2023-04-01T17:30:30;1.15;;;0.60;;
75716;SDS011;64333;50.138;14.332;2023-04-01T17:41:18;1.15;;;0.90;;
75716;SDS011;64333;50.138;14.332;2023-04-01T17:43:49;1.33;;;0.95;;
75716;SDS011;64333;50.138;14.332;2023-04-01T17:59:43;2.57;;;1.80;;
75716;SDS011;64333;50.138;14.332;2023-04-01T18:04:43;2.73;;;1.80;;
75716;SDS011;64333;50.138;14.332;2023-04-01T18:17:12;3.78;;;1.80;;
75716;SDS011;64333;50.138;14.332;2023-04-01T18:20:02;2.78;;;2.10;;
75716;SDS011;64333;50.138;14.332;2023-04-01T18:27:32;1.73;;;1.63;;
75716;SDS011;64333;50.138;14.332;2023-04-01T18:30:17;3.47;;;1.60;;
75716;SDS011;64333;50.138;14.332;2023-04-01T18:32:51;3.28;;;1.70;;
75716;SDS011;64333;50.138;14.332;2023-04-01T18:37:46;3.80;;;2.38;;
75716;SDS011;64333;50.138;14.332;2023-04-01T18:43:00;3.72;;;2.38;;
75716;SDS011;64333;50.138;14.332;2023-04-01T18:45:28;3.28;;;2.20;;
75716;SDS011;64333;50.138;14.332;2023-04-01T18:48:01;2.67;;;1.83;;
75716;SDS011;64333;50.138;14.332;2023-04-01T18:53:08;2.90;;;1.50;;
75716;SDS011;64333;50.138;14.332;2023-04-01T18:55:54;1.83;;;1.08;;
75716;SDS011;64333;50.138;14.332;2023-04-01T19:06:06;2.22;;;1.55;;
75716;SDS011;64333;50.138;14.332;2023-04-01T19:08:39;4.03;;;2.20;;
75716;SDS011;64333;50.138;14.332;2023-04-01T19:11:22;3.35;;;2.15;;
75716;SDS011;64333;50.138;14.332;2023-04-01T19:19:13;1.73;;;1.20;;
75716;SDS011;64333;50.138;14.332;2023-04-01T19:21:46;3.08;;;1.80;;
75716;SDS011;64333;50.138;14.332;2023-04-01T19:24:31;2.88;;;2.00;;
75716;SDS011;64333;50.138;14.332;2023-04-01T19:50:30;2.90;;;2.07;;
75716;SDS011;64333;50.138;14.332;2023-04-01T19:53:00;3.25;;;2.20;;
75716;SDS011;64333;50.138;14.332;2023-04-01T20:00:50;3.90;;;2.10;;
75716;SDS011;64333;50.138;14.332;2023-04-01T20:13:38;2.45;;;1.63;;
75716;SDS011;64333;50.138;14.332;2023-04-01T20:16:07;3.33;;;2.05;;
75716;SDS011;64333;50.138;14.332;2023-04-01T20:21:03;2.30;;;1.45;;
75716;SDS011;64333;50.138;14.332;2023-04-01T20:26:07;4.05;;;2.53;;
75716;SDS011;64333;50.138;14.332;2023-04-01T20:31:13;1.77;;;1.60;;
75716;SDS011;64333;50.138;14.332;2023-04-01T20:46:40;3.13;;;2.20;;
75716;SDS011;64333;50.138;14.332;2023-04-01T20:54:24;4.07;;;2.33;;
75716;SDS011;64333;50.138;14.332;2023-04-01T20:57:03;3.28;;;2.05;;
75716;SDS011;64333;50.138;14.332;2023-04-01T21:08:15;3.33;;;1.80;;
75716;SDS011;64333;50.138;14.332;2023-04-01T21:12:48;2.10;;;1.63;;
75716;SDS011;64333;50.138;14.332;2023-04-01T21:15:29;2.90;;;1.70;;
75716;SDS011;64333;50.138;14.332;2023-04-01T21:26:39;2.80;;;1.50;;
75716;SDS011;64333;50.138;14.332;2023-04-01T21:31:18;3.33;;;1.70;;
75716;SDS011;64333;50.138;14.332;2023-04-01T21:39:10;1.95;;;1.40;;
75716;SDS011;64333;50.138;14.332;2023-04-01T22:05:04;2.22;;;2.00;;
75716;SDS011;64333;50.138;14.332;2023-04-01T22:12:50;1.80;;;1.50;;
75716;SDS011;64333;50.138;14.332;2023-04-01T22:15:26;2.55;;;1.98;;
75716;SDS011;64333;50.138;14.332;2023-04-01T22:20:30;2.53;;;1.77;;
75716;SDS011;64333;50.138;14.332;2023-04-01T22:27:54;2.75;;;2.00;;
75716;SDS011;64333;50.138;14.332;2023-04-01T22:30:27;1.90;;;1.70;;
75716;SDS011;64333;50.138;14.332;2023-04-01T22:41:11;3.85;;;2.15;;
75716;SDS011;64333;50.138;14.332;2023-04-01T22:43:42;3.15;;;2.10;;
75716;SDS011;64333;50.138;14.332;2023-04-01T22:53:39;3.47;;;2.42;;
75716;SDS011;64333;50.138;14.332;2023-04-01T22:56:11;2.88;;;1.92;;
75716;SDS011;64333;50.138;14.332;2023-04-01T22:58:42;3.05;;;2.22;;
75716;SDS011;64333;50.138;14.332;2023-04-01T23:01:20;2.38;;;2.00;;
75716;SDS011;64333;50.138;14.332;2023-04-01T23:03:47;2.63;;;2.30;;
75716;SDS011;64333;50.138;14.332;2023-04-01T23:06:30;3.15;;;2.35;;
75716;SDS011;64333;50.138;14.332;2023-04-01T23:09:00;4.05;;;2.20;;
75716;SDS011;64333;50.138;14.332;2023-04-01T23:11:32;3.78;;;2.78;;
75716;SDS011;64333;50.138;14.332;2023-04-01T23:26:15;3.20;;;2.27;;
75716;SDS011;64333;50.138;14.332;2023-04-01T23:29:00;3.25;;;2.65;;
75716;SDS011;64333;50.138;14.332;2023-04-01T23:31:35;3.30;;;2.83;;
75716;SDS011;64333;50.138;14.332;2023-04-01T23:34:44;3.03;;;2.60;;
75716;SDS011;64333;50.138;14.332;2023-04-01T23:36:50;4.75;;;2.85;;
75716;SDS011;64333;50.138;14.332;2023-04-01T23:39:25;4.05;;;3.10;;
75716;SDS011;64333;50.138;14.332;2023-04-01T23:41:53;3.83;;;3.10;;
75716;SDS011;64333;50.138;14.332;2023-04-01T23:44:19;4.13;;;3.15;;
75716;SDS011;64333;50.138;14.332;2023-04-01T23:46:45;2.92;;;2.45;;
75716;SDS011;64333;50.138;14.332;2023-04-01T23:49:12;4.57;;;2.90;;
75716;SDS011;64333;50.138;14.332;2023-04-01T23:51:39;5.25;;;3.47;;
75716;SDS011;64333;50.138;14.332;2023-04-01T23:56:50;4.45;;;2.92;;
75716;SDS011;64333;50.138;14.332;2023-04-01T23:59:17;4.10;;;3.33;;
